Luke, Maryland
Current Conditions -  °F | °C
As of 4:35 PM on Friday 24 Oct 2014 (Local Time) from K2G4 Reporting Station
Clear Clear  
Wind Chill: 52°   Ceiling: Unl
Heat Index: 52°   Visibility: 10mi
Dew Point: 32°   Wind: 12mph
Humidity: 47%   Direction: 280°W
Pressure: 30.01"   Gusts: 16mph
Location:  39.48°N, 79.06°W
Report Text: K2G4 242035Z AUTO 28010G14KT 10SM CLR 11/00 A3001 RMK AO1
Loading
Personal Weather Stations






























Interactive Weather Map
Tropical Storm Tracking
New forecast layout! Learn more

10-Day Weather Forecast

Advertisements
Track Severe Weather on mobile